MMGL/GDL METAR and TAF weather

Enter ICAO airport designator
Station Type Date Time Source
MMGL METAR 2018/12/10 11:46 UTC NOAA

MMGL 101146Z 00000KT 8SM SKC 09/08 A3025 RMK SLP154 52005 911 CI


Station Type Date Time Source
MMGL Decoded METAR 2018/12/10 11:46 UTC NOAA

Don Miguel / Guadalaj, Mexico (MMGL) 20-31N 103-19W
Dec 10, 2018 - 06:46 AM EST / 2018.12.10 1146 UTC
Wind: Calm:0
Visibility: 8 mile(s):0
Sky conditions: clear
Temperature: 48 F (9 C)
Dew Point: 46 F (8 C)
Relative Humidity: 93%
Pressure (altimeter): 30.25 in. Hg (1024 hPa)
Pressure tendency: 0.01 inches (0.5 hPa) higher than three hours ago
ob: MMGL 101146Z 00000KT 8SM SKC 09/08 A3025 RMK SLP154 52005 911 CI
cycle: 12

Station Type Date Time Source
MMGL TAF 2018/12/10 12:27 UTC NOAA

TAF MMGL 101021Z 1012/1118 00000KT P6SM SCT250 TX25/1022Z TN10/1012Z
TEMPO 1012/1016 3SM BR BKN020
FM101800 07010KT P6SM SCT030 BKN120
TEMPO 1022/1102 BKN030
FM110600 00000KT P6SM SCT030
FM111700 34010KT P6SM SCT030 BKN250


Example: see airport list